sensor_id;sensor_type;location;lat;lon;timestamp;pressure;altitude;pressure_sealevel;temperature;humidity
9521;BME280;4798;41.574;23.734;2023-05-07T00:01:35;95530.31;;;13.39;81.93
9521;BME280;4798;41.574;23.734;2023-05-07T00:04:04;95532.13;;;12.81;85.30
9521;BME280;4798;41.574;23.734;2023-05-07T00:06:32;95539.00;;;12.48;90.05
9521;BME280;4798;41.574;23.734;2023-05-07T00:09:01;95536.22;;;12.63;91.83
9521;BME280;4798;41.574;23.734;2023-05-07T00:11:30;95538.53;;;12.75;90.49
9521;BME280;4798;41.574;23.734;2023-05-07T00:14:00;95534.44;;;12.88;88.66
9521;BME280;4798;41.574;23.734;2023-05-07T00:16:30;95537.84;;;12.98;86.50
9521;BME280;4798;41.574;23.734;2023-05-07T00:18:59;95543.31;;;13.17;85.41
9521;BME280;4798;41.574;23.734;2023-05-07T00:21:27;95544.91;;;12.79;90.10
9521;BME280;4798;41.574;23.734;2023-05-07T00:23:55;95538.59;;;12.65;91.98
9521;BME280;4798;41.574;23.734;2023-05-07T00:26:23;95545.75;;;12.26;96.70
9521;BME280;4798;41.574;23.734;2023-05-07T00:28:52;95531.09;;;12.33;95.94
9521;BME280;4798;41.574;23.734;2023-05-07T00:31:20;95538.81;;;12.73;94.87
9521;BME280;4798;41.574;23.734;2023-05-07T00:33:50;95537.16;;;12.83;93.46
9521;BME280;4798;41.574;23.734;2023-05-07T00:36:18;95543.09;;;12.74;93.67
9521;BME280;4798;41.574;23.734;2023-05-07T00:38:46;95551.28;;;12.39;98.38
9521;BME280;4798;41.574;23.734;2023-05-07T00:41:15;95539.88;;;12.34;100.00
9521;BME280;4798;41.574;23.734;2023-05-07T00:43:43;95534.16;;;12.55;97.65
9521;BME280;4798;41.574;23.734;2023-05-07T00:46:13;95538.56;;;12.70;95.60
9521;BME280;4798;41.574;23.734;2023-05-07T00:48:42;95539.81;;;12.83;93.56
9521;BME280;4798;41.574;23.734;2023-05-07T00:51:12;95544.31;;;12.87;91.79
9521;BME280;4798;41.574;23.734;2023-05-07T00:53:41;95548.28;;;12.90;91.34
9521;BME280;4798;41.574;23.734;2023-05-07T00:56:09;95537.81;;;12.69;92.00
9521;BME280;4798;41.574;23.734;2023-05-07T00:58:38;95555.84;;;12.72;92.14
9521;BME280;4798;41.574;23.734;2023-05-07T01:01:06;95559.88;;;12.21;97.05
9521;BME280;4798;41.574;23.734;2023-05-07T01:03:35;95561.72;;;12.26;97.20
9521;BME280;4798;41.574;23.734;2023-05-07T01:06:05;95545.13;;;12.44;94.55
9521;BME280;4798;41.574;23.734;2023-05-07T01:08:37;95557.69;;;12.33;94.56
9521;BME280;4798;41.574;23.734;2023-05-07T01:11:06;95559.91;;;12.11;99.66
9521;BME280;4798;41.574;23.734;2023-05-07T01:13:36;95559.25;;;12.39;97.57
9521;BME280;4798;41.574;23.734;2023-05-07T01:16:05;95555.47;;;12.45;98.12
9521;BME280;4798;41.574;23.734;2023-05-07T01:18:34;95550.66;;;12.52;96.01
9521;BME280;4798;41.574;23.734;2023-05-07T01:21:04;95553.00;;;12.64;94.17
9521;BME280;4798;41.574;23.734;2023-05-07T01:23:34;95533.72;;;12.43;92.77
9521;BME280;4798;41.574;23.734;2023-05-07T01:26:03;95556.47;;;12.59;92.99
9521;BME280;4798;41.574;23.734;2023-05-07T01:28:31;95574.88;;;12.51;94.80
9521;BME280;4798;41.574;23.734;2023-05-07T01:31:01;95567.16;;;12.54;94.96
9521;BME280;4798;41.574;23.734;2023-05-07T01:33:33;95566.63;;;12.47;95.34
9521;BME280;4798;41.574;23.734;2023-05-07T01:36:03;95570.34;;;12.51;96.08
9521;BME280;4798;41.574;23.734;2023-05-07T01:38:35;95571.91;;;12.57;94.21
9521;BME280;4798;41.574;23.734;2023-05-07T01:41:04;95575.19;;;11.75;100.00
9521;BME280;4798;41.574;23.734;2023-05-07T01:43:33;95575.44;;;11.59;100.00
9521;BME280;4798;41.574;23.734;2023-05-07T01:46:02;95581.31;;;11.51;100.00
9521;BME280;4798;41.574;23.734;2023-05-07T01:48:32;95571.75;;;11.55;100.00
9521;BME280;4798;41.574;23.734;2023-05-07T01:51:01;95573.59;;;11.59;100.00
9521;BME280;4798;41.574;23.734;2023-05-07T01:53:36;95582.38;;;11.55;100.00
9521;BME280;4798;41.574;23.734;2023-05-07T01:56:05;95573.56;;;11.79;100.00
9521;BME280;4798;41.574;23.734;2023-05-07T01:58:34;95564.19;;;12.02;100.00
9521;BME280;4798;41.574;23.734;2023-05-07T02:01:02;95560.91;;;12.25;100.00
9521;BME280;4798;41.574;23.734;2023-05-07T02:03:30;95557.16;;;12.31;98.64
9521;BME280;4798;41.574;23.734;2023-05-07T02:05:59;95556.09;;;12.27;98.90
9521;BME280;4798;41.574;23.734;2023-05-07T02:08:28;95554.75;;;12.35;97.48
9521;BME280;4798;41.574;23.734;2023-05-07T02:10:58;95556.34;;;12.36;97.41
9521;BME280;4798;41.574;23.734;2023-05-07T02:13:28;95561.38;;;12.37;96.00
9521;BME280;4798;41.574;23.734;2023-05-07T02:15:57;95556.06;;;12.37;95.31
9521;BME280;4798;41.574;23.734;2023-05-07T02:18:25;95508.38;;;12.07;94.88
9521;BME280;4798;41.574;23.734;2023-05-07T02:20:54;95506.56;;;11.97;94.43
9521;BME280;4798;41.574;23.734;2023-05-07T02:23:22;95525.50;;;11.86;98.49
9521;BME280;4798;41.574;23.734;2023-05-07T02:25:51;95566.34;;;11.95;100.00
9521;BME280;4798;41.574;23.734;2023-05-07T02:28:21;95568.06;;;11.45;100.00
9521;BME280;4798;41.574;23.734;2023-05-07T02:30:49;95567.50;;;11.69;100.00
9521;BME280;4798;41.574;23.734;2023-05-07T02:33:17;95564.25;;;11.87;100.00
9521;BME280;4798;41.574;23.734;2023-05-07T02:35:46;95569.03;;;11.85;100.00
9521;BME280;4798;41.574;23.734;2023-05-07T02:38:14;95562.41;;;11.87;100.00
9521;BME280;4798;41.574;23.734;2023-05-07T02:40:42;95569.22;;;12.08;100.00
9521;BME280;4798;41.574;23.734;2023-05-07T02:43:11;95562.84;;;12.09;100.00
9521;BME280;4798;41.574;23.734;2023-05-07T02:45:40;95556.44;;;12.16;99.20
9521;BME280;4798;41.574;23.734;2023-05-07T02:48:10;95542.97;;;11.97;99.08
9521;BME280;4798;41.574;23.734;2023-05-07T02:50:38;95569.53;;;11.92;100.00
9521;BME280;4798;41.574;23.734;2023-05-07T02:53:06;95560.56;;;11.68;100.00
9521;BME280;4798;41.574;23.734;2023-05-07T02:55:35;95565.44;;;11.10;100.00
9521;BME280;4798;41.574;23.734;2023-05-07T02:58:03;95561.69;;;11.36;100.00
9521;BME280;4798;41.574;23.734;2023-05-07T03:00:31;95558.97;;;11.62;100.00
9521;BME280;4798;41.574;23.734;2023-05-07T03:03:01;95556.31;;;11.62;100.00
9521;BME280;4798;41.574;23.734;2023-05-07T03:05:29;95560.88;;;11.71;100.00
9521;BME280;4798;41.574;23.734;2023-05-07T03:07:58;95557.91;;;11.78;100.00
9521;BME280;4798;41.574;23.734;2023-05-07T03:10:26;95565.06;;;11.87;100.00
9521;BME280;4798;41.574;23.734;2023-05-07T03:12:55;95562.94;;;11.84;100.00
9521;BME280;4798;41.574;23.734;2023-05-07T03:15:23;95559.50;;;11.84;100.00
9521;BME280;4798;41.574;23.734;2023-05-07T03:17:51;95550.47;;;11.80;100.00
9521;BME280;4798;41.574;23.734;2023-05-07T03:20:21;95477.56;;;11.37;100.00
9521;BME280;4798;41.574;23.734;2023-05-07T03:22:49;95558.41;;;11.85;100.00
9521;BME280;4798;41.574;23.734;2023-05-07T03:25:18;95564.25;;;11.87;100.00
9521;BME280;4798;41.574;23.734;2023-05-07T03:27:46;95570.94;;;11.74;100.00
9521;BME280;4798;41.574;23.734;2023-05-07T03:30:14;95493.84;;;10.70;100.00
9521;BME280;4798;41.574;23.734;2023-05-07T03:32:43;95577.59;;;11.36;100.00
9521;BME280;4798;41.574;23.734;2023-05-07T03:35:11;95584.22;;;11.44;100.00
9521;BME280;4798;41.574;23.734;2023-05-07T03:37:41;95584.75;;;11.51;100.00
9521;BME280;4798;41.574;23.734;2023-05-07T03:40:10;95559.25;;;11.60;100.00
9521;BME280;4798;41.574;23.734;2023-05-07T03:42:39;95575.97;;;11.76;100.00
9521;BME280;4798;41.574;23.734;2023-05-07T03:45:08;95581.28;;;11.76;100.00
9521;BME280;4798;41.574;23.734;2023-05-07T03:47:37;95573.84;;;11.78;100.00
9521;BME280;4798;41.574;23.734;2023-05-07T03:50:06;95584.97;;;11.85;100.00
9521;BME280;4798;41.574;23.734;2023-05-07T03:52:34;95579.94;;;11.83;100.00
9521;BME280;4798;41.574;23.734;2023-05-07T03:55:05;95589.50;;;11.84;100.00
9521;BME280;4798;41.574;23.734;2023-05-07T03:57:33;95583.91;;;11.86;100.00
9521;BME280;4798;41.574;23.734;2023-05-07T04:00:02;95581.25;;;11.86;100.00
9521;BME280;4798;41.574;23.734;2023-05-07T04:02:31;95573.28;;;11.91;100.00
9521;BME280;4798;41.574;23.734;2023-05-07T04:05:00;95585.47;;;11.97;100.00
9521;BME280;4798;41.574;23.734;2023-05-07T04:07:29;95591.06;;;11.95;100.00
9521;BME280;4798;41.574;23.734;2023-05-07T04:09:57;95583.59;;;12.02;100.00
9521;BME280;4798;41.574;23.734;2023-05-07T04:12:27;95578.00;;;12.09;100.00
9521;BME280;4798;41.574;23.734;2023-05-07T04:14:55;95581.66;;;12.18;100.00
9521;BME280;4798;41.574;23.734;2023-05-07T04:17:23;95586.44;;;12.26;99.97
9521;BME280;4798;41.574;23.734;2023-05-07T04:19:52;95590.41;;;12.29;99.51
9521;BME280;4798;41.574;23.734;2023-05-07T04:22:20;95593.28;;;12.37;99.14
9521;BME280;4798;41.574;23.734;2023-05-07T04:24:48;95593.75;;;12.54;97.54
9521;BME280;4798;41.574;23.734;2023-05-07T04:27:17;95539.50;;;12.01;99.84
9521;BME280;4798;41.574;23.734;2023-05-07T04:29:46;95595.53;;;12.05;100.00
9521;BME280;4798;41.574;23.734;2023-05-07T04:32:15;95590.91;;;12.36;100.00
9521;BME280;4798;41.574;23.734;2023-05-07T04:34:44;95593.16;;;12.57;100.00
9521;BME280;4798;41.574;23.734;2023-05-07T04:37:12;95595.72;;;12.72;100.00
9521;BME280;4798;41.574;23.734;2023-05-07T04:39:41;95603.03;;;12.57;100.00
9521;BME280;4798;41.574;23.734;2023-05-07T04:42:09;95605.56;;;12.23;100.00
9521;BME280;4798;41.574;23.734;2023-05-07T04:44:43;95606.19;;;12.64;100.00
9521;BME280;4798;41.574;23.734;2023-05-07T04:47:13;95596.50;;;12.78;100.00
9521;BME280;4798;41.574;23.734;2023-05-07T04:49:41;95598.78;;;12.51;100.00
9521;BME280;4798;41.574;23.734;2023-05-07T04:52:10;95594.31;;;12.41;100.00
9521;BME280;4798;41.574;23.734;2023-05-07T04:54:38;95598.41;;;12.72;100.00
9521;BME280;4798;41.574;23.734;2023-05-07T04:57:06;95590.75;;;13.10;100.00
9521;BME280;4798;41.574;23.734;2023-05-07T04:59:35;95596.53;;;12.29;100.00
9521;BME280;4798;41.574;23.734;2023-05-07T05:02:03;95596.72;;;12.38;100.00
9521;BME280;4798;41.574;23.734;2023-05-07T05:04:33;95594.84;;;12.43;100.00
9521;BME280;4798;41.574;23.734;2023-05-07T05:07:02;95602.72;;;12.63;100.00
9521;BME280;4798;41.574;23.734;2023-05-07T05:09:31;95602.00;;;12.92;100.00
9521;BME280;4798;41.574;23.734;2023-05-07T05:12:04;95603.25;;;12.60;100.00
9521;BME280;4798;41.574;23.734;2023-05-07T05:14:41;95579.88;;;12.57;100.00
9521;BME280;4798;41.574;23.734;2023-05-07T05:17:11;95578.09;;;12.43;100.00
9521;BME280;4798;41.574;23.734;2023-05-07T05:19:44;95603.91;;;12.37;100.00
9521;BME280;4798;41.574;23.734;2023-05-07T05:22:13;95599.13;;;12.39;100.00
9521;BME280;4798;41.574;23.734;2023-05-07T05:24:41;95588.34;;;13.03;100.00
9521;BME280;4798;41.574;23.734;2023-05-07T05:27:09;95588.34;;;13.08;100.00
9521;BME280;4798;41.574;23.734;2023-05-07T05:29:38;95595.44;;;13.23;99.65
9521;BME280;4798;41.574;23.734;2023-05-07T05:32:06;95598.72;;;13.10;100.00
9521;BME280;4798;41.574;23.734;2023-05-07T05:34:34;95594.13;;;13.49;98.45
9521;BME280;4798;41.574;23.734;2023-05-07T05:37:04;95591.38;;;13.59;96.20
9521;BME280;4798;41.574;23.734;2023-05-07T05:39:32;95544.09;;;12.79;99.73
9521;BME280;4798;41.574;23.734;2023-05-07T05:42:01;95595.06;;;13.34;100.00
9521;BME280;4798;41.574;23.734;2023-05-07T05:44:29;95595.97;;;14.06;97.24
9521;BME280;4798;41.574;23.734;2023-05-07T05:46:57;95596.78;;;13.78;96.32
9521;BME280;4798;41.574;23.734;2023-05-07T05:49:26;95592.88;;;14.18;96.24
9521;BME280;4798;41.574;23.734;2023-05-07T05:51:54;95585.94;;;14.17;96.79
9521;BME280;4798;41.574;23.734;2023-05-07T05:54:24;95587.88;;;14.77;93.39
9521;BME280;4798;41.574;23.734;2023-05-07T05:56:52;95598.84;;;14.33;94.70
9521;BME280;4798;41.574;23.734;2023-05-07T05:59:21;95592.34;;;14.63;95.29
9521;BME280;4798;41.574;23.734;2023-05-07T06:01:49;95594.34;;;15.08;90.00
9521;BME280;4798;41.574;23.734;2023-05-07T06:04:17;95599.84;;;14.98;88.36
9521;BME280;4798;41.574;23.734;2023-05-07T06:06:46;95590.25;;;14.97;88.76
9521;BME280;4798;41.574;23.734;2023-05-07T06:09:14;95587.69;;;15.24;84.53
9521;BME280;4798;41.574;23.734;2023-05-07T06:11:44;95586.84;;;15.10;82.03
9521;BME280;4798;41.574;23.734;2023-05-07T06:14:12;95539.06;;;15.09;82.68
9521;BME280;4798;41.574;23.734;2023-05-07T06:16:41;95573.53;;;16.02;80.08
9521;BME280;4798;41.574;23.734;2023-05-07T06:19:09;95590.25;;;15.94;78.64
9521;BME280;4798;41.574;23.734;2023-05-07T06:21:38;95593.53;;;16.18;78.69
9521;BME280;4798;41.574;23.734;2023-05-07T06:24:07;95586.84;;;16.84;75.91
9521;BME280;4798;41.574;23.734;2023-05-07T06:26:35;95580.47;;;17.15;73.60
9521;BME280;4798;41.574;23.734;2023-05-07T06:29:05;95586.16;;;16.65;74.29
9521;BME280;4798;41.574;23.734;2023-05-07T06:31:34;95591.75;;;16.55;73.03
9521;BME280;4798;41.574;23.734;2023-05-07T06:34:02;95571.06;;;17.40;73.10
9521;BME280;4798;41.574;23.734;2023-05-07T06:36:31;95573.75;;;18.02;69.42
9521;BME280;4798;41.574;23.734;2023-05-07T06:39:00;95557.47;;;18.29;66.37
9521;BME280;4798;41.574;23.734;2023-05-07T06:41:28;95550.97;;;17.82;67.68
9521;BME280;4798;41.574;23.734;2023-05-07T06:43:56;95556.78;;;18.71;66.03
9521;BME280;4798;41.574;23.734;2023-05-07T06:46:26;95558.53;;;19.44;63.70
9521;BME280;4798;41.574;23.734;2023-05-07T06:48:55;95548.88;;;19.43;63.34
9521;BME280;4798;41.574;23.734;2023-05-07T06:51:24;95550.88;;;19.72;64.26
9521;BME280;4798;41.574;23.734;2023-05-07T06:53:52;95553.34;;;20.32;62.43
9521;BME280;4798;41.574;23.734;2023-05-07T06:56:20;95550.81;;;20.36;61.48
9521;BME280;4798;41.574;23.734;2023-05-07T06:58:49;95557.38;;;20.09;61.65
9521;BME280;4798;41.574;23.734;2023-05-07T07:01:17;95542.91;;;20.60;60.56
9521;BME280;4798;41.574;23.734;2023-05-07T07:03:48;95544.09;;;20.71;58.75
9521;BME280;4798;41.574;23.734;2023-05-07T07:06:18;95550.53;;;20.78;60.34
9521;BME280;4798;41.574;23.734;2023-05-07T07:08:46;95551.69;;;21.19;58.94
9521;BME280;4798;41.574;23.734;2023-05-07T07:11:15;95542.41;;;21.61;57.30
9521;BME280;4798;41.574;23.734;2023-05-07T07:13:43;95543.25;;;21.86;56.20
9521;BME280;4798;41.574;23.734;2023-05-07T07:16:12;95537.50;;;21.75;55.23
9521;BME280;4798;41.574;23.734;2023-05-07T07:18:40;95473.22;;;21.32;55.02
9521;BME280;4798;41.574;23.734;2023-05-07T07:21:10;95532.94;;;22.00;53.52
9521;BME280;4798;41.574;23.734;2023-05-07T07:23:38;95522.38;;;21.95;53.37
9521;BME280;4798;41.574;23.734;2023-05-07T07:26:07;95522.59;;;21.90;53.83
9521;BME280;4798;41.574;23.734;2023-05-07T07:28:36;95526.22;;;23.06;52.49
9521;BME280;4798;41.574;23.734;2023-05-07T07:31:12;95526.28;;;22.94;50.46
9521;BME280;4798;41.574;23.734;2023-05-07T07:33:41;95526.41;;;22.49;52.10
9521;BME280;4798;41.574;23.734;2023-05-07T07:36:11;95524.56;;;23.02;51.13
9521;BME280;4798;41.574;23.734;2023-05-07T07:38:39;95492.84;;;22.74;50.98
9521;BME280;4798;41.574;23.734;2023-05-07T07:41:08;95525.59;;;23.37;50.91
9521;BME280;4798;41.574;23.734;2023-05-07T07:43:36;95531.38;;;22.71;51.83
9521;BME280;4798;41.574;23.734;2023-05-07T07:46:04;95514.44;;;22.99;50.38
9521;BME280;4798;41.574;23.734;2023-05-07T07:48:33;95532.84;;;23.49;50.29
9521;BME280;4798;41.574;23.734;2023-05-07T07:51:01;95529.38;;;24.23;49.63
9521;BME280;4798;41.574;23.734;2023-05-07T07:53:31;95530.56;;;23.94;48.55
9521;BME280;4798;41.574;23.734;2023-05-07T07:55:59;95524.63;;;24.51;47.99
9521;BME280;4798;41.574;23.734;2023-05-07T07:58:30;95524.09;;;24.61;46.71
9521;BME280;4798;41.574;23.734;2023-05-07T08:00:59;95524.09;;;25.72;45.38
9521;BME280;4798;41.574;23.734;2023-05-07T08:03:27;95517.75;;;25.27;45.16
9521;BME280;4798;41.574;23.734;2023-05-07T08:05:58;95514.59;;;25.44;46.31
9521;BME280;4798;41.574;23.734;2023-05-07T08:08:27;95503.94;;;24.27;46.12
9521;BME280;4798;41.574;23.734;2023-05-07T08:10:56;95512.75;;;24.40;46.01
9521;BME280;4798;41.574;23.734;2023-05-07T08:13:25;95498.41;;;24.24;47.63
9521;BME280;4798;41.574;23.734;2023-05-07T08:15:53;95494.38;;;25.41;45.17
9521;BME280;4798;41.574;23.734;2023-05-07T08:18:22;95381.25;;;25.68;44.26
9521;BME280;4798;41.574;23.734;2023-05-07T08:20:51;95492.47;;;26.29;43.18
9521;BME280;4798;41.574;23.734;2023-05-07T08:23:20;95463.09;;;26.12;44.01
9521;BME280;4798;41.574;23.734;2023-05-07T08:25:49;95472.94;;;26.20;43.01
9521;BME280;4798;41.574;23.734;2023-05-07T08:28:19;95472.41;;;26.37;40.86
9521;BME280;4798;41.574;23.734;2023-05-07T08:30:48;95477.63;;;26.75;41.15
9521;BME280;4798;41.574;23.734;2023-05-07T08:33:16;95468.00;;;26.29;41.65
9521;BME280;4798;41.574;23.734;2023-05-07T08:35:44;95470.50;;;26.67;41.60
9521;BME280;4798;41.574;23.734;2023-05-07T08:38:13;95465.94;;;26.75;41.46
9521;BME280;4798;41.574;23.734;2023-05-07T08:40:41;95464.19;;;26.60;40.16
9521;BME280;4798;41.574;23.734;2023-05-07T08:43:12;95461.81;;;27.14;39.73
9521;BME280;4798;41.574;23.734;2023-05-07T08:45:45;95462.06;;;28.12;41.06
9521;BME280;4798;41.574;23.734;2023-05-07T08:48:16;95454.78;;;28.88;39.67
9521;BME280;4798;41.574;23.734;2023-05-07T08:50:44;95453.75;;;28.46;38.19
9521;BME280;4798;41.574;23.734;2023-05-07T08:53:13;95452.84;;;28.31;36.69
9521;BME280;4798;41.574;23.734;2023-05-07T08:55:43;95444.81;;;29.21;36.37
9521;BME280;4798;41.574;23.734;2023-05-07T08:58:12;95408.94;;;28.47;39.19
9521;BME280;4798;41.574;23.734;2023-05-07T09:00:42;95433.28;;;29.87;36.70
9521;BME280;4798;41.574;23.734;2023-05-07T09:03:10;95430.47;;;29.52;37.47
9521;BME280;4798;41.574;23.734;2023-05-07T09:05:40;95437.41;;;28.53;37.27
9521;BME280;4798;41.574;23.734;2023-05-07T09:08:08;95438.28;;;27.65;36.89
9521;BME280;4798;41.574;23.734;2023-05-07T09:10:37;95413.94;;;28.34;38.12
9521;BME280;4798;41.574;23.734;2023-05-07T09:13:05;95395.13;;;28.18;37.50
9521;BME280;4798;41.574;23.734;2023-05-07T09:15:33;95428.75;;;27.89;37.72
9521;BME280;4798;41.574;23.734;2023-05-07T09:18:03;95426.16;;;28.03;36.55
9521;BME280;4798;41.574;23.734;2023-05-07T09:20:32;94924.78;;;24.36;37.86
9521;BME280;4798;41.574;23.734;2023-05-07T09:23:00;95380.78;;;29.08;35.41
9521;BME280;4798;41.574;23.734;2023-05-07T09:25:29;95408.28;;;29.82;36.06
9521;BME280;4798;41.574;23.734;2023-05-07T09:27:59;95400.44;;;30.23;33.93
9521;BME280;4798;41.574;23.734;2023-05-07T09:30:28;95401.97;;;30.34;33.12
9521;BME280;4798;41.574;23.734;2023-05-07T09:32:58;95399.81;;;31.12;33.03
9521;BME280;4798;41.574;23.734;2023-05-07T09:35:29;95396.19;;;29.83;33.54
9521;BME280;4798;41.574;23.734;2023-05-07T09:37:58;95382.44;;;29.47;34.12
9521;BME280;4798;41.574;23.734;2023-05-07T09:40:30;95380.94;;;29.89;32.77
9521;BME280;4798;41.574;23.734;2023-05-07T09:43:09;95322.09;;;28.49;33.38
9521;BME280;4798;41.574;23.734;2023-05-07T09:45:38;95400.25;;;28.27;32.49
9521;BME280;4798;41.574;23.734;2023-05-07T09:48:07;95375.84;;;29.73;31.40
9521;BME280;4798;41.574;23.734;2023-05-07T09:50:42;95370.53;;;31.02;31.71
9521;BME280;4798;41.574;23.734;2023-05-07T09:53:14;95356.88;;;31.64;31.12
9521;BME280;4798;41.574;23.734;2023-05-07T09:55:43;95376.91;;;30.64;29.47
9521;BME280;4798;41.574;23.734;2023-05-07T09:58:12;95363.94;;;31.62;30.76
9521;BME280;4798;41.574;23.734;2023-05-07T10:00:41;95345.97;;;31.57;30.44
9521;BME280;4798;41.574;23.734;2023-05-07T10:03:10;95365.97;;;30.64;30.50
9521;BME280;4798;41.574;23.734;2023-05-07T10:05:42;95365.47;;;30.97;30.42
9521;BME280;4798;41.574;23.734;2023-05-07T10:10:59;95364.00;;;29.06;32.20
9521;BME280;4798;41.574;23.734;2023-05-07T10:13:27;95351.22;;;29.24;31.30
9521;BME280;4798;41.574;23.734;2023-05-07T10:15:57;95356.72;;;29.41;32.63
9521;BME280;4798;41.574;23.734;2023-05-07T10:18:26;95354.34;;;30.39;30.66
9521;BME280;4798;41.574;23.734;2023-05-07T10:21:02;95329.28;;;30.54;29.51
9521;BME280;4798;41.574;23.734;2023-05-07T10:23:33;95345.13;;;31.02;29.18
9521;BME280;4798;41.574;23.734;2023-05-07T10:26:04;95318.22;;;30.79;30.11
9521;BME280;4798;41.574;23.734;2023-05-07T10:28:36;95344.75;;;30.89;28.32
9521;BME280;4798;41.574;23.734;2023-05-07T10:31:18;95333.66;;;31.24;27.16
9521;BME280;4798;41.574;23.734;2023-05-07T10:33:53;95331.16;;;32.36;25.02
9521;BME280;4798;41.574;23.734;2023-05-07T10:36:25;95329.41;;;31.16;25.70
9521;BME280;4798;41.574;23.734;2023-05-07T10:38:55;95318.47;;;29.41;27.21
9521;BME280;4798;41.574;23.734;2023-05-07T10:41:23;95328.59;;;29.23;31.81
9521;BME280;4798;41.574;23.734;2023-05-07T10:43:51;95324.66;;;29.17;29.84
9521;BME280;4798;41.574;23.734;2023-05-07T10:46:21;95319.91;;;28.82;29.88
9521;BME280;4798;41.574;23.734;2023-05-07T10:49:09;95309.03;;;30.27;28.60
9521;BME280;4798;41.574;23.734;2023-05-07T10:51:39;95323.16;;;29.73;27.64
9521;BME280;4798;41.574;23.734;2023-05-07T10:54:22;95239.66;;;29.61;27.84
9521;BME280;4798;41.574;23.734;2023-05-07T10:56:54;95312.97;;;30.15;26.70
9521;BME280;4798;41.574;23.734;2023-05-07T10:59:34;95312.59;;;30.06;28.64
9521;BME280;4798;41.574;23.734;2023-05-07T11:02:09;95281.47;;;30.84;28.38
9521;BME280;4798;41.574;23.734;2023-05-07T11:04:38;95297.47;;;31.54;25.48
9521;BME280;4798;41.574;23.734;2023-05-07T11:07:28;95297.84;;;32.00;25.51
9521;BME280;4798;41.574;23.734;2023-05-07T11:10:01;95298.13;;;30.16;25.96
9521;BME280;4798;41.574;23.734;2023-05-07T11:12:51;95262.00;;;30.71;26.93
9521;BME280;4798;41.574;23.734;2023-05-07T11:15:42;95291.31;;;31.32;26.47
9521;BME280;4798;41.574;23.734;2023-05-07T11:18:15;95298.94;;;30.06;27.60
9521;BME280;4798;41.574;23.734;2023-05-07T11:20:55;95292.41;;;30.80;27.59
9521;BME280;4798;41.574;23.734;2023-05-07T11:26:47;95273.34;;;31.31;28.34
9521;BME280;4798;41.574;23.734;2023-05-07T11:29:17;95287.78;;;31.87;26.67
9521;BME280;4798;41.574;23.734;2023-05-07T11:31:49;95274.28;;;31.07;27.56
9521;BME280;4798;41.574;23.734;2023-05-07T11:34:22;95289.09;;;30.41;26.75
9521;BME280;4798;41.574;23.734;2023-05-07T11:36:51;95310.31;;;28.30;29.69
9521;BME280;4798;41.574;23.734;2023-05-07T11:39:27;95301.41;;;28.44;29.66
9521;BME280;4798;41.574;23.734;2023-05-07T11:41:58;95298.69;;;30.77;28.07
9521;BME280;4798;41.574;23.734;2023-05-07T11:44:41;95305.03;;;31.84;27.76
9521;BME280;4798;41.574;23.734;2023-05-07T11:47:10;95296.38;;;31.45;28.14
9521;BME280;4798;41.574;23.734;2023-05-07T11:49:38;95264.16;;;31.59;28.82
9521;BME280;4798;41.574;23.734;2023-05-07T11:52:07;95288.72;;;31.15;28.74
9521;BME280;4798;41.574;23.734;2023-05-07T11:54:36;95283.66;;;30.19;29.83
9521;BME280;4798;41.574;23.734;2023-05-07T11:57:06;95295.63;;;31.33;29.10
9521;BME280;4798;41.574;23.734;2023-05-07T11:59:38;95288.25;;;30.54;29.42
9521;BME280;4798;41.574;23.734;2023-05-07T12:02:08;95284.16;;;30.87;29.33
9521;BME280;4798;41.574;23.734;2023-05-07T12:04:38;95269.09;;;30.58;28.69
9521;BME280;4798;41.574;23.734;2023-05-07T12:07:11;95277.84;;;30.03;29.41
9521;BME280;4798;41.574;23.734;2023-05-07T12:09:39;95264.47;;;30.34;28.94
9521;BME280;4798;41.574;23.734;2023-05-07T12:12:09;95273.19;;;29.93;30.46
9521;BME280;4798;41.574;23.734;2023-05-07T12:14:38;95272.81;;;29.21;31.64
9521;BME280;4798;41.574;23.734;2023-05-07T12:17:07;95271.63;;;29.18;32.03
9521;BME280;4798;41.574;23.734;2023-05-07T12:19:36;95271.63;;;29.61;31.19
9521;BME280;4798;41.574;23.734;2023-05-07T12:22:05;95273.59;;;29.67;30.69
9521;BME280;4798;41.574;23.734;2023-05-07T12:24:45;95267.56;;;28.52;31.61
9521;BME280;4798;41.574;23.734;2023-05-07T12:27:16;95276.00;;;27.14;33.06
9521;BME280;4798;41.574;23.734;2023-05-07T12:29:45;95276.09;;;28.40;32.74
9521;BME280;4798;41.574;23.734;2023-05-07T12:32:14;95234.97;;;29.47;31.51
9521;BME280;4798;41.574;23.734;2023-05-07T12:34:43;95256.44;;;29.49;30.94
9521;BME280;4798;41.574;23.734;2023-05-07T12:37:12;95233.31;;;30.06;30.67
9521;BME280;4798;41.574;23.734;2023-05-07T12:39:44;95250.91;;;30.96;29.47
9521;BME280;4798;41.574;23.734;2023-05-07T12:42:19;95224.31;;;30.89;29.18
9521;BME280;4798;41.574;23.734;2023-05-07T12:44:50;95246.47;;;30.50;29.47
9521;BME280;4798;41.574;23.734;2023-05-07T12:47:20;95238.22;;;30.54;29.47
9521;BME280;4798;41.574;23.734;2023-05-07T12:49:49;95236.44;;;30.15;29.87
9521;BME280;4798;41.574;23.734;2023-05-07T12:52:18;95242.25;;;31.56;29.08
9521;BME280;4798;41.574;23.734;2023-05-07T12:54:47;95247.69;;;31.08;28.39
9521;BME280;4798;41.574;23.734;2023-05-07T12:57:19;95246.28;;;29.67;29.71
9521;BME280;4798;41.574;23.734;2023-05-07T12:59:48;95237.66;;;28.80;30.18
9521;BME280;4798;41.574;23.734;2023-05-07T13:02:16;95227.84;;;30.06;31.45
9521;BME280;4798;41.574;23.734;2023-05-07T13:04:44;95234.50;;;30.89;30.38
9521;BME280;4798;41.574;23.734;2023-05-07T13:07:14;95231.09;;;30.70;28.90
9521;BME280;4798;41.574;23.734;2023-05-07T13:09:42;95238.09;;;29.67;31.04
9521;BME280;4798;41.574;23.734;2023-05-07T13:12:11;95229.94;;;29.28;30.79
9521;BME280;4798;41.574;23.734;2023-05-07T13:14:40;95228.53;;;28.34;31.44
9521;BME280;4798;41.574;23.734;2023-05-07T13:17:09;95218.44;;;28.34;32.36
9521;BME280;4798;41.574;23.734;2023-05-07T13:19:37;95219.78;;;27.93;32.67
9521;BME280;4798;41.574;23.734;2023-05-07T13:22:05;95231.25;;;27.58;32.01
9521;BME280;4798;41.574;23.734;2023-05-07T13:24:33;95232.09;;;27.62;32.15
9521;BME280;4798;41.574;23.734;2023-05-07T13:27:02;95230.84;;;28.18;31.39